createdAt,value
2018-12-17T11:17:40.494Z,28.60
2018-12-17T11:26:45.690Z,29.83
2018-12-17T11:32:45.240Z,28.97
2018-12-17T11:38:34.258Z,28.63
2018-12-17T11:41:15.170Z,27.70
2018-12-17T11:44:04.246Z,27.10
2018-12-17T11:46:52.344Z,27.70
2018-12-17T11:52:26.340Z,26.80
2018-12-17T12:01:37.517Z,24.87
2018-12-17T12:07:26.372Z,27.20
2018-12-17T12:13:13.930Z,25.80
2018-12-17T12:16:00.825Z,24.23
2018-12-17T12:22:07.418Z,25.30
2018-12-17T12:24:44.590Z,25.73
2018-12-17T12:27:30.763Z,24.33
2018-12-17T12:58:03.626Z,20.63
2018-12-17T13:10:16.441Z,22.80
2018-12-17T13:13:03.853Z,23.90
2018-12-17T13:30:52.715Z,23.83
2018-12-17T13:33:34.359Z,25.53
2018-12-17T13:36:24.261Z,24.23
2018-12-17T13:39:12.522Z,24.20
2018-12-17T13:42:04.246Z,23.10
2018-12-17T13:44:46.039Z,26.07
2018-12-17T13:50:37.974Z,25.50
2018-12-17T13:53:28.645Z,24.70
2018-12-17T13:56:07.137Z,23.20
2018-12-17T13:58:53.541Z,24.50
2018-12-17T14:01:35.683Z,24.30
2018-12-17T14:04:22.377Z,26.12
2018-12-17T14:07:05.011Z,26.50
2018-12-17T14:09:55.662Z,27.00
2018-12-17T14:12:43.200Z,24.97
2018-12-17T14:15:35.227Z,25.50
2018-12-17T14:21:37.832Z,23.23
2018-12-17T14:24:23.722Z,20.97
2018-12-17T14:27:11.125Z,23.00
2018-12-17T14:29:53.031Z,24.43
2018-12-17T14:32:30.600Z,23.80
2018-12-17T14:38:02.926Z,26.73
2018-12-17T14:40:46.485Z,24.23
2018-12-17T14:43:36.301Z,22.77
2018-12-17T14:46:15.769Z,23.53
2018-12-17T14:48:52.658Z,22.23
2018-12-17T14:51:40.620Z,24.17
2018-12-17T14:54:26.065Z,23.80
2018-12-17T14:57:06.466Z,21.60
2018-12-17T14:59:43.067Z,23.87
2018-12-17T15:02:30.491Z,22.93
2018-12-17T15:05:08.479Z,23.67
2018-12-17T15:07:56.319Z,22.40
2018-12-17T15:10:39.956Z,22.23
2018-12-17T15:13:25.807Z,22.23
2018-12-17T15:16:15.701Z,21.73
2018-12-17T15:19:07.847Z,21.50
2018-12-17T15:21:59.768Z,22.93
2018-12-17T15:24:48.246Z,21.47
2018-12-17T15:27:27.734Z,22.40
2018-12-17T15:30:13.006Z,22.20
2018-12-17T15:33:03.780Z,22.57
2018-12-17T15:35:48.101Z,22.50
2018-12-17T15:38:39.492Z,22.10
2018-12-17T15:44:21.329Z,21.07
2018-12-17T15:47:09.653Z,22.30
2018-12-17T15:56:06.893Z,22.60
2018-12-17T16:08:17.328Z,21.43
2018-12-17T16:20:26.125Z,20.27
2018-12-17T16:23:16.339Z,21.37
2018-12-17T16:35:11.530Z,21.77
2018-12-17T16:41:00.882Z,21.07
2018-12-17T16:43:40.345Z,21.00
2018-12-17T16:46:21.799Z,21.23
2018-12-17T16:49:02.409Z,20.33
2018-12-17T16:51:41.820Z,20.10
2018-12-17T16:57:30.585Z,20.33
2018-12-17T17:00:08.049Z,20.83
2018-12-17T17:02:59.960Z,21.43
2018-12-17T17:05:45.840Z,19.97
2018-12-17T17:08:29.689Z,20.03
2018-12-17T17:11:16.128Z,19.17
2018-12-17T17:13:59.232Z,21.50
2018-12-17T17:16:36.789Z,21.50
2018-12-17T17:19:22.288Z,19.43
2018-12-17T17:22:08.082Z,20.90
2018-12-17T17:24:53.855Z,20.77
2018-12-17T17:27:31.246Z,20.30
2018-12-17T17:30:10.470Z,21.33
2018-12-17T17:36:05.028Z,20.43
2018-12-17T17:38:45.844Z,21.37
2018-12-17T17:41:24.912Z,21.23
2018-12-17T17:47:12.448Z,20.23
2018-12-17T17:49:53.444Z,20.10
2018-12-17T17:52:31.188Z,20.50
2018-12-17T17:55:16.500Z,20.57
2018-12-17T17:58:06.518Z,19.90
2018-12-17T18:00:58.794Z,19.70
2018-12-17T18:03:36.602Z,19.30
2018-12-17T18:06:26.616Z,20.13
2018-12-17T18:09:11.880Z,20.23
2018-12-17T18:11:52.898Z,18.87
2018-12-17T18:14:33.972Z,20.70
2018-12-17T18:17:19.951Z,20.40
2018-12-17T18:22:50.789Z,20.40
2018-12-17T18:28:38.132Z,20.10
2018-12-17T18:31:27.873Z,19.70
2018-12-17T18:34:13.464Z,21.03
2018-12-17T18:37:05.386Z,20.77
2018-12-17T18:39:51.829Z,20.53
2018-12-17T18:42:34.888Z,20.50
2018-12-17T18:45:16.635Z,20.60
2018-12-17T18:48:01.796Z,21.33
2018-12-17T18:50:46.689Z,20.80
2018-12-17T18:53:25.142Z,19.03
2018-12-17T18:56:14.841Z,20.27
2018-12-17T18:58:54.528Z,20.30
2018-12-17T19:01:40.238Z,20.20
2018-12-17T19:04:19.836Z,21.67
2018-12-17T19:07:03.786Z,21.43
2018-12-17T19:09:43.764Z,21.10
2018-12-17T19:12:28.984Z,19.53
2018-12-17T19:15:07.742Z,19.07
2018-12-17T19:17:45.157Z,19.23
2018-12-17T19:20:25.528Z,20.87
2018-12-17T19:23:11.753Z,22.20
2018-12-17T19:25:51.185Z,19.80
2018-12-17T19:28:27.856Z,19.63
2018-12-17T19:34:15.745Z,20.70
2018-12-17T19:36:55.649Z,20.57
2018-12-17T19:39:35.242Z,20.03
2018-12-17T19:45:07.100Z,20.50
2018-12-17T19:47:46.196Z,20.10
2018-12-17T19:53:31.114Z,18.53
2018-12-17T19:56:22.366Z,19.47
2018-12-17T19:58:59.245Z,19.43
2018-12-17T20:04:30.117Z,19.20
2018-12-17T20:07:21.230Z,19.20
2018-12-17T20:10:08.979Z,20.40
2018-12-17T20:12:54.252Z,19.30
2018-12-17T20:15:31.047Z,20.27
2018-12-17T20:18:07.524Z,18.10
2018-12-17T20:20:44.385Z,18.53
2018-12-17T20:23:23.890Z,16.57
2018-12-17T20:26:09.455Z,17.97
2018-12-17T20:32:02.061Z,19.33
2018-12-17T20:34:47.573Z,17.70
2018-12-17T20:43:49.725Z,17.93
2018-12-17T21:02:35.739Z,17.80
2018-12-17T21:17:58.583Z,19.40
2018-12-17T21:20:40.417Z,17.70
2018-12-17T21:23:26.730Z,19.07
2018-12-17T21:29:16.713Z,18.10
2018-12-17T21:31:54.687Z,18.07
2018-12-17T21:34:40.471Z,18.20
2018-12-17T21:37:19.558Z,18.97
2018-12-17T21:40:09.471Z,18.00
2018-12-17T21:42:55.578Z,18.97
2018-12-17T21:45:35.251Z,18.37
2018-12-17T21:48:23.089Z,18.20
2018-12-17T21:51:00.466Z,18.53
2018-12-17T21:53:43.391Z,17.10
2018-12-17T21:59:36.354Z,19.93
2018-12-17T22:02:25.378Z,18.10
2018-12-17T22:05:18.302Z,19.10
2018-12-17T22:07:57.576Z,17.70
2018-12-17T22:10:38.856Z,17.50
2018-12-17T22:13:17.873Z,18.20
2018-12-17T22:16:05.279Z,18.23
2018-12-17T22:18:44.280Z,17.60
2018-12-17T22:24:21.355Z,17.50
2018-12-17T22:27:09.341Z,18.60
2018-12-17T22:29:51.134Z,18.10
2018-12-17T22:32:27.979Z,17.97
2018-12-17T22:35:05.522Z,17.63
2018-12-17T22:40:48.116Z,18.87
2018-12-17T22:43:29.646Z,19.33
2018-12-17T22:46:15.274Z,17.33
2018-12-17T22:49:01.147Z,17.30
2018-12-17T22:51:39.903Z,17.10
2018-12-17T23:00:17.467Z,17.77
2018-12-17T23:03:06.498Z,19.40
2018-12-17T23:05:43.808Z,18.43
2018-12-17T23:08:23.890Z,18.47
2018-12-17T23:11:09.780Z,17.33
2018-12-17T23:13:51.965Z,17.00
2018-12-17T23:19:33.862Z,19.00
2018-12-17T23:22:10.621Z,19.10
2018-12-17T23:24:49.435Z,18.77
2018-12-17T23:27:35.829Z,19.13
2018-12-17T23:30:14.136Z,21.93
2018-12-17T23:36:09.423Z,19.80
2018-12-17T23:38:59.380Z,20.37
2018-12-17T23:41:44.890Z,22.07
2018-12-17T23:44:26.989Z,20.20
2018-12-17T23:47:15.159Z,22.70
2018-12-17T23:50:02.751Z,23.40
2018-12-17T23:52:42.310Z,22.00
2018-12-17T23:55:33.714Z,23.80
2018-12-17T23:58:21.262Z,22.30
